Orbital elements of IRIDIUM 33 DEB
| Launched | 13 September 1997 |
| Flight ended | – |
| Launch site | Tyuratam Missile and Space Center, Kazakhstan (Also known as Baikonur Cosmodrome) |
| Owner | United States |
| NORAD ID | 33881 |
| Date fetched |
Epoch osculation |
Inc. [°] |
Ecc. | RA asc node [hr] |
Arg Peri. [°] |
Mean anom [°] |
Mean motion [rev/day] |
Abs. mag |
| Date fetched |
Epoch osculation |
Inc. [°] |
Ecc. | RA asc node [hr] |
Arg Peri. [°] |
Mean anom [°] |
Mean motion [rev/day] |
Abs. mag |
| 2026 May 06 17:57 | 2026 May 05 12:42:43 | 86.3840 | 0.00616 | 2.9339 | 47.2538 | 130.5092 | 14.60877 | – |
| 2026 May 05 17:57 | 2026 May 05 12:42:43 | 86.3840 | 0.00616 | 2.9339 | 47.2538 | 130.5092 | 14.60877 | – |
| 2026 May 04 17:57 | 2026 Apr 30 06:02:40 | 86.3846 | 0.00613 | 3.0879 | 63.6138 | 130.5092 | 14.60877 | – |
| 2026 May 03 17:57 | 2026 Apr 30 06:02:40 | 86.3846 | 0.00613 | 3.0879 | 63.6138 | 130.5092 | 14.60877 | – |
| 2026 May 02 17:57 | 2026 Apr 30 06:02:40 | 86.3846 | 0.00613 | 3.0879 | 63.6138 | 130.5092 | 14.60877 | – |
| 2026 May 01 17:56 | 2026 Apr 30 06:02:40 | 86.3846 | 0.00613 | 3.0879 | 63.6138 | 130.5092 | 14.60877 | – |
| 2026 Apr 30 17:56 | 2026 Apr 30 06:02:40 | 86.3846 | 0.00613 | 3.0879 | 63.6138 | 130.5092 | 14.60877 | – |
| 2026 Apr 29 17:57 | 2026 Apr 24 08:28:06 | 86.3831 | 0.00605 | 3.2601 | 82.0727 | 130.5092 | 14.60877 | – |
| 2026 Apr 28 17:56 | 2026 Apr 24 08:28:06 | 86.3831 | 0.00605 | 3.2601 | 82.0727 | 130.5092 | 14.60877 | – |
| 2026 Apr 27 17:58 | 2026 Apr 24 08:28:06 | 86.3831 | 0.00605 | 3.2601 | 82.0727 | 130.5092 | 14.60877 | – |
| 2026 Apr 26 17:58 | 2026 Apr 24 08:28:06 | 86.3831 | 0.00605 | 3.2601 | 82.0727 | 130.5092 | 14.60877 | – |
| 2026 Apr 25 17:58 | 2026 Apr 24 08:28:06 | 86.3831 | 0.00605 | 3.2601 | 82.0727 | 130.5092 | 14.60877 | – |
| 2026 Apr 24 17:59 | 2026 Apr 24 08:28:06 | 86.3831 | 0.00605 | 3.2601 | 82.0727 | 130.5092 | 14.60877 | – |
| 2026 Apr 23 17:57 | 2026 Apr 19 06:54:26 | 86.3845 | 0.00591 | 3.4078 | 98.2307 | 130.5092 | 14.60877 | – |
| 2026 Apr 22 17:57 | 2026 Apr 19 06:54:26 | 86.3845 | 0.00591 | 3.4078 | 98.2307 | 130.5092 | 14.60877 | – |
| 2026 Apr 21 17:57 | 2026 Apr 19 06:54:26 | 86.3845 | 0.00591 | 3.4078 | 98.2307 | 130.5092 | 14.60877 | – |
| 2026 Apr 20 17:57 | 2026 Apr 19 06:54:26 | 86.3845 | 0.00591 | 3.4078 | 98.2307 | 130.5092 | 14.60877 | – |
| 2026 Apr 19 17:58 | 2026 Apr 19 06:54:26 | 86.3845 | 0.00591 | 3.4078 | 98.2307 | 130.5092 | 14.60877 | – |
| 2026 Apr 18 17:56 | 2026 Apr 12 19:56:29 | 86.3828 | 0.00572 | 3.5961 | 119.6205 | 130.5092 | 14.60877 | – |
| 2026 Apr 16 17:57 | 2026 Apr 12 19:56:29 | 86.3828 | 0.00572 | 3.5961 | 119.6205 | 130.5092 | 14.60877 | – |
| 2026 Apr 14 17:57 | 2026 Apr 12 19:56:29 | 86.3828 | 0.00572 | 3.5961 | 119.6205 | 130.5092 | 14.60877 | – |
| 2026 Apr 13 17:57 | 2026 Apr 12 19:56:29 | 86.3828 | 0.00572 | 3.5961 | 119.6205 | 130.5092 | 14.60877 | – |
| 2026 Apr 12 17:57 | 2026 Apr 08 07:46:10 | 86.3836 | 0.00559 | 3.7276 | 134.9536 | 130.5092 | 14.60877 | – |
| 2026 Apr 11 17:57 | 2026 Apr 08 07:46:10 | 86.3836 | 0.00559 | 3.7276 | 134.9536 | 130.5092 | 14.60877 | – |
| 2026 Apr 10 17:58 | 2026 Apr 08 07:46:10 | 86.3836 | 0.00559 | 3.7276 | 134.9536 | 130.5092 | 14.60877 | – |
| 2026 Apr 09 18:01 | 2026 Apr 08 07:46:10 | 86.3836 | 0.00559 | 3.7276 | 134.9536 | 130.5092 | 14.60877 | – |